createdAt,value
2022-09-05T00:01:52.242Z,22.39
2022-09-05T00:04:26.962Z,22.36
2022-09-05T00:07:31.174Z,22.44
2022-09-05T00:10:15.184Z,22.29
2022-09-05T00:12:42.739Z,22.22
2022-09-05T00:15:21.188Z,22.27
2022-09-05T00:19:19.166Z,22.31
2022-09-05T00:24:21.665Z,22.28
2022-09-05T00:24:35.151Z,22.24
2022-09-05T00:27:13.535Z,22.21
2022-09-05T00:31:51.477Z,22.18
2022-09-05T00:33:02.564Z,22.20
2022-09-05T00:35:53.620Z,22.19
2022-09-05T00:38:30.489Z,22.13
2022-09-05T00:41:13.693Z,22.04
2022-09-05T00:43:46.256Z,22.05
2022-09-05T00:46:31.855Z,22.07
2022-09-05T00:49:15.474Z,22.07
2022-09-05T00:51:47.944Z,22.05
2022-09-05T00:54:32.621Z,22.01
2022-09-05T00:57:39.630Z,22.04
2022-09-05T01:00:16.960Z,21.99
2022-09-05T01:03:12.432Z,21.95
2022-09-05T01:06:01.014Z,21.99
2022-09-05T01:09:07.707Z,21.93
2022-09-05T01:11:38.365Z,21.96
2022-09-05T01:14:20.389Z,21.88
2022-09-05T01:17:27.502Z,21.86
2022-09-05T01:20:19.710Z,21.84
2022-09-05T01:23:24.748Z,21.82
2022-09-05T01:25:58.841Z,21.80
2022-09-05T01:29:18.716Z,21.83
2022-09-05T01:31:45.836Z,21.78
2022-09-05T01:34:18.870Z,21.73
2022-09-05T01:37:00.473Z,21.64
2022-09-05T01:40:14.273Z,21.59
2022-09-05T01:42:39.192Z,21.60
2022-09-05T01:45:39.450Z,21.59
2022-09-05T01:48:31.036Z,21.57
2022-09-05T01:51:35.211Z,21.55
2022-09-05T01:54:23.747Z,21.52
2022-09-05T01:57:19.427Z,21.44
2022-09-05T01:59:57.026Z,21.51
2022-09-05T02:02:50.501Z,21.51
2022-09-05T02:05:49.184Z,21.43
2022-09-05T02:08:16.409Z,21.44
2022-09-05T02:10:49.052Z,21.44
2022-09-05T02:13:41.136Z,21.47
2022-09-05T02:16:29.074Z,21.38
2022-09-05T02:22:01.095Z,21.34
2022-09-05T02:24:38.539Z,21.27
2022-09-05T02:27:43.639Z,21.26
2022-09-05T02:30:18.075Z,21.23
2022-09-05T02:32:51.656Z,21.19
2022-09-05T02:35:30.689Z,21.17
2022-09-05T02:43:51.884Z,21.18
2022-09-05T02:45:14.494Z,21.19
2022-09-05T02:45:16.411Z,21.10
2022-09-05T02:47:23.486Z,21.06
2022-09-05T02:53:57.821Z,21.12
2022-09-05T02:57:34.739Z,21.08
2022-09-05T02:57:35.749Z,21.07
2022-09-05T02:59:25.860Z,21.09
2022-09-05T03:02:26.360Z,21.01
2022-09-05T03:04:53.540Z,20.99
2022-09-05T03:07:56.275Z,20.92
2022-09-05T03:10:53.770Z,20.86
2022-09-05T03:13:30.914Z,20.92
2022-09-05T03:16:47.574Z,20.89
2022-09-05T03:19:31.483Z,20.85
2022-09-05T03:22:37.015Z,20.78
2022-09-05T03:25:21.923Z,20.72
2022-09-05T03:28:07.246Z,20.67
2022-09-05T03:31:21.998Z,20.56
2022-09-05T03:34:01.771Z,20.63
2022-09-05T03:36:40.523Z,20.64
2022-09-05T03:39:28.723Z,20.59
2022-09-05T03:42:14.731Z,20.64
2022-09-05T03:45:00.511Z,20.66
2022-09-05T03:47:53.958Z,20.58
2022-09-05T03:57:20.204Z,20.54
2022-09-05T03:57:25.240Z,20.55
2022-09-05T03:57:28.411Z,20.60
2022-09-05T04:00:23.800Z,20.58
2022-09-05T04:08:07.189Z,20.54
2022-09-05T04:08:30.677Z,20.50
2022-09-05T04:08:57.209Z,20.54
2022-09-05T04:11:31.707Z,20.53
2022-09-05T04:14:02.875Z,20.54
2022-09-05T04:16:32.958Z,20.53
2022-09-05T04:19:20.016Z,20.52
2022-09-05T04:21:51.026Z,20.54
2022-09-05T04:24:45.526Z,20.47
2022-09-05T04:27:21.118Z,20.47
2022-09-05T04:30:39.057Z,20.48
2022-09-05T04:33:11.434Z,20.40
2022-09-05T04:35:57.024Z,20.43
2022-09-05T04:38:39.305Z,20.40
2022-09-05T04:41:21.374Z,20.44
2022-09-05T04:44:13.091Z,20.45
2022-09-05T04:47:02.552Z,20.45
2022-09-05T04:49:33.464Z,20.43
2022-09-05T04:52:13.338Z,20.37
2022-09-05T04:54:53.229Z,20.38
2022-09-05T04:57:35.533Z,20.36
2022-09-05T05:02:59.718Z,20.41
2022-09-05T05:06:08.546Z,20.43
2022-09-05T05:06:09.419Z,20.41
2022-09-05T05:08:48.703Z,20.44
2022-09-05T05:17:29.899Z,20.37
2022-09-05T05:18:06.876Z,20.33
2022-09-05T05:18:08.291Z,20.30
2022-09-05T05:20:40.018Z,20.29
2022-09-05T05:23:31.761Z,20.27
2022-09-05T05:26:01.097Z,20.25
2022-09-05T05:28:49.453Z,20.24
2022-09-05T05:31:22.299Z,20.17
2022-09-05T05:33:52.616Z,20.18
2022-09-05T05:36:28.468Z,20.16
2022-09-05T05:38:57.424Z,20.21
2022-09-05T05:41:44.323Z,20.32
2022-09-05T05:44:16.472Z,20.31
2022-09-05T05:46:47.895Z,20.36
2022-09-05T05:49:28.674Z,20.38
2022-09-05T05:52:13.948Z,20.35
2022-09-05T05:54:51.100Z,20.36
2022-09-05T05:57:39.939Z,20.31
2022-09-05T06:00:40.666Z,20.33
2022-09-05T06:03:49.149Z,20.38
2022-09-05T06:06:47.258Z,20.45
2022-09-05T06:14:54.742Z,20.49
2022-09-05T06:14:57.016Z,20.50
2022-09-05T06:16:01.810Z,20.59
2022-09-05T06:19:04.397Z,20.73
2022-09-05T06:22:10.528Z,20.74
2022-09-05T06:24:53.898Z,20.79
2022-09-05T06:28:07.147Z,20.90
2022-09-05T06:30:47.865Z,21.00
2022-09-05T06:33:45.922Z,21.06
2022-09-05T06:36:23.359Z,21.13
2022-09-05T06:39:15.479Z,21.16
2022-09-05T06:42:10.880Z,21.23
2022-09-05T06:45:30.203Z,21.34
2022-09-05T06:48:08.015Z,21.41
2022-09-05T06:51:07.879Z,21.45
2022-09-05T06:53:50.686Z,21.49
2022-09-05T06:56:48.447Z,21.58
2022-09-05T06:59:39.430Z,21.63
2022-09-05T07:02:59.555Z,21.72
2022-09-05T07:05:38.010Z,21.77
2022-09-05T07:08:25.133Z,21.81
2022-09-05T07:11:15.928Z,21.86
2022-09-05T07:13:53.039Z,21.96
2022-09-05T07:16:37.527Z,21.98
2022-09-05T07:19:12.372Z,22.03
2022-09-05T07:21:43.128Z,22.07
2022-09-05T07:24:18.673Z,22.14
2022-09-05T07:27:03.132Z,22.16
2022-09-05T07:29:35.305Z,22.21
2022-09-05T07:32:05.776Z,22.29
2022-09-05T07:34:34.656Z,22.32
2022-09-05T07:37:14.535Z,22.44
2022-09-05T07:39:54.775Z,22.46
2022-09-05T07:42:30.534Z,22.48
2022-09-05T07:45:02.021Z,22.51
2022-09-05T07:47:58.695Z,22.60
2022-09-05T07:51:24.922Z,22.65
2022-09-05T07:56:55.052Z,22.69
2022-09-05T07:57:02.077Z,22.74
2022-09-05T07:58:53.771Z,22.81
2022-09-05T08:01:22.614Z,22.87
2022-09-05T08:03:55.374Z,22.99
2022-09-05T08:07:34.340Z,23.11
2022-09-05T08:10:05.594Z,23.18
2022-09-05T08:12:16.083Z,23.25
2022-09-05T08:15:03.792Z,23.30
2022-09-05T08:17:31.279Z,23.31
2022-09-05T08:20:09.298Z,23.48
2022-09-05T08:23:06.212Z,23.59
2022-09-05T08:25:58.640Z,23.64
2022-09-05T08:28:39.042Z,23.62
2022-09-05T08:31:20.152Z,23.61
2022-09-05T08:33:48.462Z,23.64
2022-09-05T08:36:26.378Z,23.71
2022-09-05T08:38:53.336Z,23.72
2022-09-05T08:41:49.284Z,23.84
2022-09-05T08:46:36.065Z,23.90
2022-09-05T08:47:18.583Z,23.94
2022-09-05T08:50:12.184Z,23.98
2022-09-05T08:52:38.749Z,24.05
2022-09-05T08:55:17.179Z,24.13
2022-09-05T08:57:47.146Z,24.32
2022-09-05T09:00:19.159Z,24.57
2022-09-05T09:03:04.034Z,24.75
2022-09-05T09:06:12.536Z,24.74
2022-09-05T09:08:46.167Z,24.66
2022-09-05T09:11:27.972Z,24.62
2022-09-05T09:14:16.429Z,24.62
2022-09-05T09:17:18.983Z,24.73
2022-09-05T09:20:17.967Z,24.90
2022-09-05T09:23:38.864Z,25.03
2022-09-05T09:26:17.773Z,25.05
2022-09-05T09:28:49.352Z,25.08
2022-09-05T09:31:43.558Z,25.19
2022-09-05T09:34:39.632Z,25.34
2022-09-05T09:37:49.850Z,25.50
2022-09-05T09:41:02.298Z,25.50
2022-09-05T09:43:53.412Z,25.55
2022-09-05T09:46:45.566Z,25.63
2022-09-05T09:49:23.017Z,25.73
2022-09-05T09:52:05.476Z,25.90
2022-09-05T09:54:54.137Z,25.96
2022-09-05T09:57:25.972Z,26.09
2022-09-05T09:59:55.642Z,26.10
2022-09-05T10:06:43.730Z,26.20
2022-09-05T10:10:48.841Z,26.67
2022-09-05T10:10:49.771Z,26.40
2022-09-05T10:11:53.756Z,27.07
2022-09-05T10:14:49.408Z,27.45
2022-09-05T10:17:53.322Z,27.74
2022-09-05T10:21:15.291Z,28.01
2022-09-05T10:23:52.436Z,28.22
2022-09-05T10:26:40.340Z,28.40
2022-09-05T10:29:34.716Z,28.58
2022-09-05T10:35:04.547Z,29.00
2022-09-05T10:35:13.321Z,29.18
2022-09-05T10:37:57.803Z,29.38
2022-09-05T10:40:25.907Z,29.68
2022-09-05T10:43:01.016Z,29.94
2022-09-05T10:45:53.339Z,30.12
2022-09-05T10:48:26.723Z,30.10
2022-09-05T10:51:01.873Z,30.14
2022-09-05T10:53:49.956Z,30.22
2022-09-05T10:56:26.170Z,30.49
2022-09-05T11:01:38.968Z,30.47
2022-09-05T11:02:26.177Z,30.41
2022-09-05T11:05:06.850Z,30.25
2022-09-05T11:07:51.386Z,30.33
2022-09-05T11:10:20.612Z,30.45
2022-09-05T11:13:10.797Z,30.35
2022-09-05T11:16:12.713Z,30.37
2022-09-05T11:18:57.632Z,30.65
2022-09-05T11:21:52.730Z,30.81
2022-09-05T11:24:50.153Z,31.13
2022-09-05T11:27:32.331Z,30.74
2022-09-05T11:30:29.640Z,30.75
2022-09-05T11:39:54.949Z,30.81
2022-09-05T11:40:09.883Z,30.87
2022-09-05T11:40:28.993Z,30.88
2022-09-05T11:42:39.448Z,30.99
2022-09-05T11:45:17.430Z,30.93
2022-09-05T11:47:50.145Z,30.94
2022-09-05T11:50:57.590Z,30.83
2022-09-05T11:53:39.423Z,31.00
2022-09-05T11:56:29.021Z,31.00
2022-09-05T11:59:04.918Z,31.07
2022-09-05T12:01:50.704Z,30.98
2022-09-05T12:04:20.430Z,31.13
2022-09-05T12:07:25.227Z,30.67
2022-09-05T12:13:26.534Z,30.57
2022-09-05T12:16:08.545Z,30.49
2022-09-05T12:18:44.184Z,30.69
2022-09-05T12:21:24.231Z,30.95
2022-09-05T12:25:15.219Z,31.03
2022-09-05T12:27:41.628Z,30.95
2022-09-05T12:29:46.927Z,30.98
2022-09-05T12:34:10.099Z,30.98
2022-09-05T12:36:07.543Z,31.03
2022-09-05T12:40:44.887Z,30.65
2022-09-05T12:41:40.698Z,30.45
2022-09-05T12:42:08.440Z,30.81
2022-09-05T12:44:42.090Z,30.30
2022-09-05T12:47:20.523Z,30.40
2022-09-05T12:50:17.059Z,30.46
2022-09-05T12:52:53.931Z,30.67
2022-09-05T12:55:33.449Z,30.49
2022-09-05T13:02:56.547Z,30.39
2022-09-05T13:03:08.335Z,30.38
2022-09-05T13:03:59.675Z,30.28
2022-09-05T13:06:35.926Z,30.36
2022-09-05T13:09:10.396Z,30.49
2022-09-05T13:14:53.083Z,30.76
2022-09-05T13:14:53.535Z,30.73
2022-09-05T13:17:43.061Z,30.59
2022-09-05T13:20:36.896Z,30.34
2022-09-05T13:23:28.739Z,30.31
2022-09-05T13:26:10.351Z,30.49
2022-09-05T13:28:46.428Z,30.55
2022-09-05T13:38:00.649Z,30.70
2022-09-05T13:38:00.698Z,30.73
2022-09-05T13:38:21.302Z,30.86
2022-09-05T13:40:10.397Z,30.96
2022-09-05T13:42:44.300Z,31.08
2022-09-05T13:45:18.649Z,30.99
2022-09-05T13:48:00.474Z,30.97
2022-09-05T13:50:37.683Z,31.03
2022-09-05T13:53:26.321Z,30.86
2022-09-05T13:56:02.937Z,30.64
2022-09-05T13:58:56.814Z,30.44
2022-09-05T14:01:58.725Z,30.35
2022-09-05T14:05:20.275Z,30.29
2022-09-05T14:08:18.988Z,30.64
2022-09-05T14:11:00.435Z,31.00
2022-09-05T14:13:32.655Z,31.17
2022-09-05T14:16:07.638Z,31.23
2022-09-05T14:19:03.906Z,31.38
2022-09-05T14:21:33.405Z,31.46
2022-09-05T14:24:27.787Z,31.33
2022-09-05T14:27:03.094Z,30.83
2022-09-05T14:29:38.969Z,30.58
2022-09-05T14:37:51.400Z,30.28
2022-09-05T14:37:52.712Z,30.41
2022-09-05T14:38:16.111Z,30.23
2022-09-05T14:41:10.462Z,30.14
2022-09-05T14:43:56.223Z,30.21
2022-09-05T14:46:45.564Z,30.18
2022-09-05T14:49:40.627Z,30.09
2022-09-05T14:52:24.329Z,30.00
2022-09-05T15:01:46.221Z,29.95
2022-09-05T15:02:41.912Z,30.01
2022-09-05T15:06:28.202Z,29.96
2022-09-05T15:11:29.535Z,30.09
2022-09-05T15:12:20.773Z,30.37
2022-09-05T15:14:36.504Z,30.48
2022-09-05T15:17:05.242Z,30.59
2022-09-05T15:20:08.771Z,30.52
2022-09-05T15:22:42.099Z,30.47
2022-09-05T15:25:20.325Z,30.43
2022-09-05T15:27:49.642Z,30.43
2022-09-05T15:30:36.000Z,30.52
2022-09-05T15:33:30.042Z,30.47
2022-09-05T15:35:58.448Z,30.46
2022-09-05T15:38:37.900Z,30.30
2022-09-05T15:41:21.186Z,30.23
2022-09-05T15:44:09.984Z,30.15
2022-09-05T15:46:56.113Z,30.09
2022-09-05T15:49:55.711Z,29.89
2022-09-05T15:52:27.324Z,29.77
2022-09-05T15:55:22.309Z,29.72
2022-09-05T15:57:58.412Z,29.61
2022-09-05T16:00:34.212Z,29.55
2022-09-05T16:03:55.254Z,29.57
2022-09-05T16:10:29.415Z,29.51
2022-09-05T16:10:48.476Z,29.48
2022-09-05T16:14:32.008Z,29.38
2022-09-05T16:23:16.570Z,29.31
2022-09-05T16:23:30.080Z,29.25
2022-09-05T16:23:33.601Z,29.30
2022-09-05T16:26:11.106Z,29.23
2022-09-05T16:29:25.231Z,29.19
2022-09-05T16:32:06.266Z,29.15
2022-09-05T16:34:49.844Z,29.09
2022-09-05T16:37:39.152Z,29.08
2022-09-05T16:40:13.978Z,29.09
2022-09-05T16:42:47.736Z,29.08
2022-09-05T16:45:45.745Z,29.05
2022-09-05T16:48:34.509Z,29.00
2022-09-05T16:51:34.859Z,29.00
2022-09-05T16:54:29.161Z,28.95
2022-09-05T16:57:20.291Z,28.90
2022-09-05T16:59:47.961Z,28.87
2022-09-05T17:02:39.594Z,28.81
2022-09-05T17:05:19.214Z,28.78
2022-09-05T17:08:11.013Z,28.74
2022-09-05T17:10:57.911Z,28.67
2022-09-05T17:13:48.528Z,28.63
2022-09-05T17:16:43.065Z,28.59
2022-09-05T17:19:22.274Z,28.54
2022-09-05T17:29:17.525Z,28.51
2022-09-05T17:29:24.040Z,28.40
2022-09-05T17:29:36.338Z,28.45
2022-09-05T17:31:48.847Z,28.35
2022-09-05T17:33:45.593Z,28.31
2022-09-05T17:36:19.715Z,28.26
2022-09-05T17:39:07.975Z,28.22
2022-09-05T17:41:46.953Z,28.19
2022-09-05T17:44:19.789Z,28.20
2022-09-05T17:47:01.370Z,28.14
2022-09-05T17:49:45.388Z,28.08
2022-09-05T17:52:33.357Z,28.03
2022-09-05T17:55:00.191Z,28.01
2022-09-05T17:57:26.859Z,27.92
2022-09-05T17:59:57.720Z,27.88
2022-09-05T18:02:26.658Z,27.83
2022-09-05T18:04:54.512Z,27.79
2022-09-05T18:07:28.647Z,27.75
2022-09-05T18:10:12.985Z,27.72
2022-09-05T18:13:14.295Z,27.64
2022-09-05T18:15:34.769Z,27.57
2022-09-05T18:18:38.420Z,27.53
2022-09-05T18:21:12.572Z,27.51
2022-09-05T18:23:54.832Z,27.43
2022-09-05T18:26:23.661Z,27.41
2022-09-05T18:29:02.914Z,27.38
2022-09-05T18:31:41.599Z,27.34
2022-09-05T18:34:21.472Z,27.27
2022-09-05T18:36:58.620Z,27.25
2022-09-05T18:39:29.521Z,27.21
2022-09-05T18:42:33.463Z,27.18
2022-09-05T18:45:15.253Z,27.18
2022-09-05T18:48:00.148Z,27.11
2022-09-05T18:50:32.532Z,27.09
2022-09-05T18:53:08.882Z,27.06
2022-09-05T18:56:13.445Z,27.01
2022-09-05T18:58:34.149Z,26.97
2022-09-05T19:01:22.308Z,26.96
2022-09-05T19:03:53.853Z,26.92
2022-09-05T19:06:35.943Z,26.92
2022-09-05T19:09:14.574Z,26.86
2022-09-05T19:11:58.080Z,26.80
2022-09-05T19:14:53.608Z,26.84
2022-09-05T19:17:32.071Z,26.80
2022-09-05T19:20:31.933Z,26.74
2022-09-05T19:23:11.853Z,26.73
2022-09-05T19:25:42.587Z,26.70
2022-09-05T19:30:53.762Z,26.65
2022-09-05T19:37:03.614Z,26.66
2022-09-05T19:37:12.160Z,26.58
2022-09-05T19:37:29.716Z,26.54
2022-09-05T19:47:31.136Z,26.61
2022-09-05T19:47:35.722Z,26.59
2022-09-05T19:47:36.182Z,26.60
2022-09-05T19:48:26.050Z,26.49
2022-09-05T19:50:57.675Z,26.50
2022-09-05T19:53:24.920Z,26.47
2022-09-05T19:55:52.448Z,26.41
2022-09-05T19:58:21.106Z,26.34
2022-09-05T20:01:00.481Z,26.30
2022-09-05T20:03:30.479Z,26.23
2022-09-05T20:06:29.793Z,26.21
2022-09-05T20:09:16.261Z,26.19
2022-09-05T20:11:53.643Z,26.13
2022-09-05T20:14:24.976Z,26.13
2022-09-05T20:16:54.540Z,26.12
2022-09-05T20:19:34.110Z,26.08
2022-09-05T20:22:40.397Z,26.04
2022-09-05T20:24:56.101Z,26.03
2022-09-05T20:27:27.397Z,26.01
2022-09-05T20:29:58.149Z,25.96
2022-09-05T20:32:39.919Z,25.87
2022-09-05T20:39:03.946Z,25.88
2022-09-05T20:43:11.277Z,25.85
2022-09-05T20:43:23.650Z,25.85
2022-09-05T20:43:58.140Z,25.81
2022-09-05T20:53:49.257Z,25.74
2022-09-05T20:54:07.816Z,25.77
2022-09-05T20:54:27.376Z,25.79
2022-09-05T20:55:39.977Z,25.88
2022-09-05T20:58:13.325Z,25.82
2022-09-05T21:01:15.659Z,25.79
2022-09-05T21:03:36.858Z,25.71
2022-09-05T21:06:22.717Z,25.69
2022-09-05T21:08:56.155Z,25.64
2022-09-05T21:11:31.605Z,25.66
2022-09-05T21:14:02.333Z,25.63
2022-09-05T21:16:31.595Z,25.62
2022-09-05T21:18:58.413Z,25.62
2022-09-05T21:21:28.486Z,25.59
2022-09-05T21:24:16.051Z,25.54
2022-09-05T21:26:43.874Z,25.56
2022-09-05T21:29:16.432Z,25.49
2022-09-05T21:31:50.272Z,25.42
2022-09-05T21:34:24.631Z,25.40
2022-09-05T21:36:57.935Z,25.43
2022-09-05T21:39:59.308Z,25.38
2022-09-05T21:46:04.599Z,25.31
2022-09-05T21:47:49.982Z,25.26
2022-09-05T21:48:05.038Z,25.34
2022-09-05T21:50:40.191Z,25.29
2022-09-05T21:55:14.827Z,25.24
2022-09-05T21:59:19.875Z,25.24
2022-09-05T21:59:28.922Z,25.19
2022-09-05T22:01:52.774Z,25.13
2022-09-05T22:04:22.200Z,25.08
2022-09-05T22:06:49.684Z,25.05
2022-09-05T22:09:17.849Z,25.04
2022-09-05T22:11:50.395Z,25.03
2022-09-05T22:14:21.944Z,25.02
2022-09-05T22:16:50.869Z,24.94
2022-09-05T22:19:23.118Z,24.91
2022-09-05T22:21:59.891Z,24.90
2022-09-05T22:24:28.931Z,24.92
2022-09-05T22:27:11.515Z,24.86
2022-09-05T22:29:40.027Z,24.80
2022-09-05T22:32:07.440Z,24.80
2022-09-05T22:34:34.165Z,24.84
2022-09-05T22:37:00.838Z,24.79
2022-09-05T22:39:37.447Z,24.75
2022-09-05T22:42:10.035Z,24.71
2022-09-05T22:44:38.742Z,24.72
2022-09-05T22:47:06.723Z,24.69
2022-09-05T22:49:34.310Z,24.70
2022-09-05T22:52:01.051Z,24.64
2022-09-05T22:54:27.699Z,24.60
2022-09-05T22:56:54.334Z,24.60
2022-09-05T22:59:21.006Z,24.64
2022-09-05T23:01:51.303Z,24.69
2022-09-05T23:04:18.028Z,24.65
2022-09-05T23:06:44.723Z,24.66
2022-09-05T23:09:11.393Z,24.60
2022-09-05T23:11:38.129Z,24.65
2022-09-05T23:14:04.842Z,24.61
2022-09-05T23:16:31.463Z,24.55
2022-09-05T23:18:58.100Z,24.54
2022-09-05T23:21:24.817Z,24.63
2022-09-05T23:23:51.446Z,24.64
2022-09-05T23:26:18.064Z,24.63
2022-09-05T23:28:44.774Z,24.65
2022-09-05T23:31:12.221Z,24.63
2022-09-05T23:33:41.258Z,24.64
2022-09-05T23:36:10.053Z,24.63
2022-09-05T23:38:36.887Z,24.53
2022-09-05T23:41:08.700Z,24.46
2022-09-05T23:43:35.514Z,24.37
2022-09-05T23:46:02.823Z,24.35
2022-09-05T23:48:29.643Z,24.18
2022-09-05T23:50:56.650Z,24.12
2022-09-05T23:53:23.738Z,23.94
2022-09-05T23:55:50.427Z,23.93
2022-09-05T23:58:17.221Z,24.02
